createdAt,value
2019-01-14T00:00:40.701Z,0
2019-01-14T00:01:41.273Z,0
2019-01-14T00:02:41.849Z,0
2019-01-14T00:03:42.423Z,0
2019-01-14T00:04:43.048Z,0
2019-01-14T00:05:43.622Z,0
2019-01-14T00:06:44.193Z,0
2019-01-14T00:07:44.766Z,0
2019-01-14T00:08:45.340Z,0
2019-01-14T00:09:45.912Z,0
2019-01-14T00:10:46.536Z,0
2019-01-14T00:11:47.110Z,0
2019-01-14T00:12:47.734Z,0
2019-01-14T00:13:48.307Z,0
2019-01-14T00:14:48.882Z,0
2019-01-14T00:15:49.454Z,0
2019-01-14T00:16:50.027Z,0
2019-01-14T00:17:50.601Z,0
2019-01-14T00:18:51.175Z,0
2019-01-14T00:19:51.748Z,0
2019-01-14T00:20:52.321Z,0
2019-01-14T00:21:52.895Z,0
2019-01-14T00:22:53.467Z,0
2019-01-14T00:23:54.040Z,0
2019-01-14T00:24:54.614Z,0
2019-01-14T00:25:55.187Z,0
2019-01-14T00:26:55.761Z,0
2019-01-14T00:27:56.333Z,0
2019-01-14T00:28:56.906Z,0
2019-01-14T00:29:57.529Z,0
2019-01-14T00:30:58.158Z,0
2019-01-14T00:31:58.828Z,0
2019-01-14T00:32:59.401Z,0
2019-01-14T00:33:59.976Z,0
2019-01-14T00:35:00.593Z,0
2019-01-14T00:36:01.216Z,0
2019-01-14T00:37:01.792Z,0
2019-01-14T00:38:02.367Z,0
2019-01-14T00:39:02.940Z,0
2019-01-14T00:40:03.522Z,0
2019-01-14T00:41:04.089Z,0
2019-01-14T00:42:04.663Z,0
2019-01-14T00:43:05.278Z,0
2019-01-14T00:44:05.851Z,0
2019-01-14T00:45:06.425Z,0
2019-01-14T00:46:07.002Z,0
2019-01-14T00:47:07.573Z,0
2019-01-14T00:48:08.144Z,0
2019-01-14T00:49:08.718Z,0
2019-01-14T00:50:09.339Z,0
2019-01-14T00:51:09.961Z,0
2019-01-14T00:52:10.536Z,0
2019-01-14T00:53:11.110Z,0
2019-01-14T00:54:11.684Z,0
2019-01-14T00:55:12.256Z,0
2019-01-14T00:56:12.830Z,0
2019-01-14T00:57:13.405Z,0
2019-01-14T00:58:13.976Z,0
2019-01-14T00:59:14.550Z,0
2019-01-14T01:00:15.124Z,0
2019-01-14T01:01:15.698Z,0
2019-01-14T01:02:16.268Z,0
2019-01-14T01:03:16.842Z,0
2019-01-14T01:04:17.414Z,0
2019-01-14T01:05:18.037Z,0
2019-01-14T01:06:24.645Z,0
2019-01-14T01:07:19.227Z,0
2019-01-14T01:08:19.799Z,0
2019-01-14T01:09:20.376Z,0
2019-01-14T01:10:21.000Z,0
2019-01-14T01:11:21.625Z,0
2019-01-14T01:12:22.247Z,0
2019-01-14T01:13:22.819Z,0
2019-01-14T01:14:23.391Z,0
2019-01-14T01:15:24.014Z,0
2019-01-14T01:16:24.639Z,0
2019-01-14T01:17:25.212Z,0
2019-01-14T01:18:25.785Z,0
2019-01-14T01:19:26.358Z,0
2019-01-14T01:20:26.931Z,0
2019-01-14T01:21:27.502Z,0
2019-01-14T01:22:28.078Z,0
2019-01-14T01:23:28.648Z,0
2019-01-14T01:24:29.314Z,0
2019-01-14T01:25:29.839Z,0
2019-01-14T01:26:30.410Z,0
2019-01-14T01:27:31.032Z,0
2019-01-14T01:28:31.604Z,0
2019-01-14T01:29:32.329Z,0
2019-01-14T01:30:32.903Z,0
2019-01-14T01:31:33.479Z,0
2019-01-14T01:32:34.101Z,0
2019-01-14T01:33:34.673Z,0
2019-01-14T01:34:35.246Z,0
2019-01-14T01:35:35.818Z,0
2019-01-14T01:36:36.390Z,0
2019-01-14T01:37:36.963Z,0
2019-01-14T01:38:37.535Z,0
2019-01-14T01:39:38.108Z,0
2019-01-14T01:40:38.731Z,0
2019-01-14T01:41:39.305Z,0
2019-01-14T01:42:39.879Z,0
2019-01-14T01:43:40.495Z,0
2019-01-14T01:44:41.124Z,0
2019-01-14T01:45:41.731Z,0
2019-01-14T01:46:42.303Z,0
2019-01-14T01:47:42.875Z,0
2019-01-14T01:48:43.487Z,0
2019-01-14T01:49:44.019Z,0
2019-01-14T01:50:44.590Z,0
2019-01-14T01:51:45.163Z,0
2019-01-14T01:52:45.735Z,0
2019-01-14T01:53:46.305Z,0
2019-01-14T01:54:46.881Z,0
2019-01-14T01:55:47.501Z,0
2019-01-14T01:56:48.072Z,0
2019-01-14T01:57:48.700Z,0
2019-01-14T01:58:49.313Z,0
2019-01-14T01:59:49.886Z,0
2019-01-14T02:00:50.458Z,0
2019-01-14T02:01:51.082Z,0
2019-01-14T02:02:51.656Z,0
2019-01-14T02:03:52.231Z,0
2019-01-14T02:04:52.804Z,0
2019-01-14T02:05:53.377Z,0
2019-01-14T02:06:53.952Z,0
2019-01-14T02:07:54.525Z,0
2019-01-14T02:08:55.097Z,0
2019-01-14T02:09:55.669Z,0
2019-01-14T02:10:56.245Z,0
2019-01-14T02:11:56.815Z,0
2019-01-14T02:12:57.387Z,0
2019-01-14T02:13:57.959Z,0
2019-01-14T02:14:58.531Z,0
2019-01-14T02:15:59.104Z,0
2019-01-14T02:16:59.677Z,0
2019-01-14T02:18:00.250Z,0
2019-01-14T02:19:00.821Z,0
2019-01-14T02:20:01.409Z,0
2019-01-14T02:21:01.965Z,0
2019-01-14T02:22:02.537Z,0
2019-01-14T02:23:03.108Z,0
2019-01-14T02:24:03.682Z,0
2019-01-14T02:25:04.256Z,0
2019-01-14T02:26:04.825Z,0
2019-01-14T02:27:05.395Z,0
2019-01-14T02:28:05.968Z,0
2019-01-14T02:29:06.540Z,0
2019-01-14T02:30:07.113Z,0
2019-01-14T02:31:07.684Z,0
2019-01-14T02:32:08.257Z,0
2019-01-14T02:33:08.878Z,0
2019-01-14T02:34:09.453Z,0
2019-01-14T02:35:10.026Z,0
2019-01-14T02:36:10.600Z,0
2019-01-14T02:37:11.171Z,0
2019-01-14T02:38:11.794Z,0
2019-01-14T02:39:12.367Z,0
2019-01-14T02:40:12.936Z,0
2019-01-14T02:41:13.509Z,0
2019-01-14T02:42:14.088Z,0
2019-01-14T02:43:14.654Z,0
2019-01-14T02:44:15.226Z,0
2019-01-14T02:45:15.801Z,0
2019-01-14T02:46:16.421Z,0
2019-01-14T02:47:17.045Z,0
2019-01-14T02:48:17.617Z,0
2019-01-14T02:49:18.189Z,0
2019-01-14T02:50:18.762Z,0
2019-01-14T02:51:19.333Z,0
2019-01-14T02:52:19.904Z,0
2019-01-14T02:53:20.526Z,0
2019-01-14T02:54:21.098Z,0
2019-01-14T02:55:21.721Z,0
2019-01-14T02:56:22.295Z,0
2019-01-14T02:57:22.919Z,0
2019-01-14T02:58:23.490Z,0
2019-01-14T02:59:24.063Z,0
2019-01-14T03:00:24.635Z,0
2019-01-14T03:01:25.211Z,0
2019-01-14T03:02:25.825Z,0
2019-01-14T03:03:26.447Z,0
2019-01-14T03:04:27.030Z,0
2019-01-14T03:05:27.591Z,0
2019-01-14T03:06:28.164Z,0
2019-01-14T03:07:28.736Z,0
2019-01-14T03:08:29.308Z,0
2019-01-14T03:09:29.880Z,0
2019-01-14T03:10:30.453Z,0
2019-01-14T03:11:31.026Z,0
2019-01-14T03:12:31.648Z,0
2019-01-14T03:13:32.280Z,0
2019-01-14T03:14:32.888Z,0
2019-01-14T03:15:33.459Z,0
2019-01-14T03:16:34.031Z,0
2019-01-14T03:17:34.603Z,0
2019-01-14T03:18:35.174Z,0
2019-01-14T03:19:35.797Z,0
2019-01-14T03:20:36.370Z,0
2019-01-14T03:21:36.943Z,0
2019-01-14T03:22:37.515Z,0
2019-01-14T03:23:38.092Z,0
2019-01-14T03:24:38.704Z,0
2019-01-14T03:25:39.278Z,0
2019-01-14T03:26:39.849Z,0
2019-01-14T03:27:40.426Z,0
2019-01-14T03:28:40.994Z,0
2019-01-14T03:29:41.567Z,0
2019-01-14T03:30:42.139Z,0
2019-01-14T03:31:42.759Z,0
2019-01-14T03:32:43.381Z,0
2019-01-14T03:33:43.948Z,0
2019-01-14T03:34:44.521Z,0
2019-01-14T03:35:45.093Z,0
2019-01-14T03:36:45.716Z,0
2019-01-14T03:37:46.286Z,0
2019-01-14T03:38:46.911Z,0
2019-01-14T03:39:47.485Z,0
2019-01-14T03:40:48.057Z,0
2019-01-14T03:41:48.682Z,0
2019-01-14T03:42:49.253Z,0
2019-01-14T03:43:49.827Z,0
2019-01-14T03:44:50.398Z,0
2019-01-14T03:45:50.972Z,0
2019-01-14T03:46:51.587Z,0
2019-01-14T03:47:52.159Z,0
2019-01-14T03:48:52.730Z,0
2019-01-14T03:49:53.352Z,0
2019-01-14T03:50:53.926Z,0
2019-01-14T03:51:54.499Z,0
2019-01-14T03:52:55.122Z,0
2019-01-14T03:53:55.743Z,0
2019-01-14T03:54:56.317Z,0
2019-01-14T03:55:56.889Z,0
2019-01-14T03:56:57.462Z,0
2019-01-14T03:57:58.034Z,0
2019-01-14T03:58:58.610Z,0
2019-01-14T03:59:59.179Z,0
2019-01-14T04:00:59.753Z,0
2019-01-14T04:02:00.374Z,0
2019-01-14T04:03:00.948Z,0
2019-01-14T04:04:01.569Z,0
2019-01-14T04:05:02.193Z,0
2019-01-14T04:06:02.755Z,0
2019-01-14T04:07:03.329Z,0
2019-01-14T04:08:03.901Z,0
2019-01-14T04:09:04.525Z,0
2019-01-14T04:10:05.097Z,0
2019-01-14T04:11:05.720Z,0
2019-01-14T04:12:06.293Z,0
2019-01-14T04:13:06.869Z,0
2019-01-14T04:14:07.440Z,0
2019-01-14T04:15:08.011Z,0
2019-01-14T04:16:08.584Z,0
2019-01-14T04:17:09.159Z,0
2019-01-14T04:18:09.778Z,0
2019-01-14T04:19:10.351Z,0
2019-01-14T04:20:10.924Z,0
2019-01-14T04:21:11.499Z,0
2019-01-14T04:22:12.073Z,0
2019-01-14T04:23:12.645Z,0
2019-01-14T04:24:13.217Z,0
2019-01-14T04:25:13.790Z,0
2019-01-14T04:26:14.362Z,0
2019-01-14T04:27:14.985Z,0
2019-01-14T04:28:15.608Z,0
2019-01-14T04:29:16.181Z,0
2019-01-14T04:30:16.755Z,0
2019-01-14T04:31:17.340Z,0
2019-01-14T04:32:17.942Z,0
2019-01-14T04:33:18.512Z,0
2019-01-14T04:34:19.087Z,0
2019-01-14T04:35:19.657Z,0
2019-01-14T04:36:20.278Z,0
2019-01-14T04:37:21.663Z,0
2019-01-14T04:38:22.373Z,0
2019-01-14T04:39:22.945Z,0
2019-01-14T04:40:23.518Z,0
2019-01-14T04:41:24.090Z,0
2019-01-14T04:42:24.662Z,0
2019-01-14T04:43:25.233Z,0
2019-01-14T04:44:25.860Z,0
2019-01-14T04:45:26.521Z,0
2019-01-14T04:46:27.091Z,0
2019-01-14T04:47:27.662Z,0
2019-01-14T04:48:28.234Z,0
2019-01-14T04:49:28.806Z,0
2019-01-14T04:50:29.376Z,0
2019-01-14T04:51:29.954Z,0
2019-01-14T04:52:30.569Z,0
2019-01-14T04:53:31.141Z,0
2019-01-14T04:54:31.714Z,0
2019-01-14T04:55:32.288Z,0
2019-01-14T04:56:32.863Z,0
2019-01-14T04:57:33.434Z,0
2019-01-14T04:58:34.007Z,0
2019-01-14T04:59:34.582Z,0
2019-01-14T05:00:35.202Z,0
2019-01-14T05:01:35.775Z,0
2019-01-14T05:02:36.350Z,0
2019-01-14T05:03:36.922Z,0
2019-01-14T05:04:37.496Z,0
2019-01-14T05:05:38.067Z,0
2019-01-14T05:06:38.646Z,0
2019-01-14T05:07:39.212Z,0
2019-01-14T05:08:39.785Z,0
2019-01-14T05:09:40.358Z,0
2019-01-14T05:10:40.930Z,0
2019-01-14T05:11:41.502Z,0
2019-01-14T05:12:42.122Z,0
2019-01-14T05:13:42.698Z,0
2019-01-14T05:14:43.269Z,0
2019-01-14T05:15:43.842Z,0
2019-01-14T05:16:44.417Z,0
2019-01-14T05:17:44.987Z,0
2019-01-14T05:18:45.557Z,0
2019-01-14T05:19:46.129Z,0
2019-01-14T05:20:46.700Z,0
2019-01-14T05:21:47.276Z,0
2019-01-14T05:22:47.889Z,0
2019-01-14T05:23:48.462Z,0
2019-01-14T05:24:49.032Z,0
2019-01-14T05:25:49.604Z,0
2019-01-14T05:26:50.174Z,0
2019-01-14T05:27:50.748Z,0
2019-01-14T05:28:51.317Z,0
2019-01-14T05:29:51.889Z,0
2019-01-14T05:30:52.464Z,0
2019-01-14T05:31:53.078Z,0
2019-01-14T05:32:53.650Z,0
2019-01-14T05:33:54.221Z,0
2019-01-14T05:34:54.793Z,0
2019-01-14T05:35:55.367Z,0
2019-01-14T05:36:55.943Z,0
2019-01-14T05:37:56.517Z,0
2019-01-14T05:38:57.086Z,0
2019-01-14T05:39:57.660Z,0
2019-01-14T05:40:58.232Z,0
2019-01-14T05:41:58.806Z,0
2019-01-14T05:42:59.377Z,0
2019-01-14T05:43:59.949Z,0
2019-01-14T05:45:00.522Z,0
2019-01-14T05:46:01.147Z,0
2019-01-14T05:47:01.767Z,0
2019-01-14T05:48:02.341Z,0
2019-01-14T05:49:02.905Z,0
2019-01-14T05:50:03.476Z,0
2019-01-14T05:51:04.055Z,0
2019-01-14T05:52:04.623Z,0
2019-01-14T05:53:05.192Z,0
2019-01-14T05:54:05.767Z,0
2019-01-14T05:55:06.336Z,0
2019-01-14T05:56:06.909Z,0
2019-01-14T05:57:07.482Z,0
2019-01-14T05:58:08.058Z,0
2019-01-14T05:59:08.627Z,0
2019-01-14T06:00:09.195Z,0
2019-01-14T06:01:09.817Z,0
2019-01-14T06:02:10.389Z,0
2019-01-14T06:03:10.958Z,0
2019-01-14T06:04:11.532Z,0
2019-01-14T06:05:12.106Z,0
2019-01-14T06:06:12.677Z,0
2019-01-14T06:07:13.450Z,0
2019-01-14T06:08:14.021Z,0
2019-01-14T06:09:14.593Z,0
2019-01-14T06:10:15.166Z,0
2019-01-14T06:11:15.736Z,0
2019-01-14T06:12:16.308Z,0
2019-01-14T06:13:16.879Z,0
2019-01-14T06:14:17.460Z,0
2019-01-14T06:15:18.064Z,0
2019-01-14T06:16:18.646Z,0
2019-01-14T06:17:19.251Z,0
2019-01-14T06:18:19.826Z,0
2019-01-14T06:19:20.398Z,0
2019-01-14T06:20:21.019Z,0
2019-01-14T06:21:21.592Z,0
2019-01-14T06:22:22.165Z,0
2019-01-14T06:23:22.740Z,0
2019-01-14T06:24:23.315Z,0
2019-01-14T06:25:23.935Z,0
2019-01-14T06:26:24.507Z,0
2019-01-14T06:27:25.077Z,0
2019-01-14T06:28:25.651Z,0
2019-01-14T06:29:26.221Z,0
2019-01-14T06:30:26.896Z,0
2019-01-14T06:31:27.467Z,0
2019-01-14T06:32:28.040Z,0
2019-01-14T06:33:28.665Z,0
2019-01-14T06:34:29.232Z,0
2019-01-14T06:35:29.808Z,0
2019-01-14T06:36:30.378Z,0
2019-01-14T06:37:30.947Z,0
2019-01-14T06:38:31.517Z,0
2019-01-14T06:39:32.088Z,0
2019-01-14T06:40:32.710Z,0
2019-01-14T06:41:33.282Z,0
2019-01-14T06:42:33.855Z,0
2019-01-14T06:43:39.478Z,0
2019-01-14T06:44:40.049Z,0
2019-01-14T06:45:40.623Z,0
2019-01-14T06:46:41.194Z,0
2019-01-14T06:47:41.766Z,0
2019-01-14T06:48:42.338Z,0
2019-01-14T06:49:42.911Z,0
2019-01-14T06:50:43.684Z,0
2019-01-14T06:51:44.254Z,0
2019-01-14T06:52:44.825Z,0
2019-01-14T06:53:45.448Z,0
2019-01-14T06:54:46.066Z,0
2019-01-14T06:55:46.590Z,0
2019-01-14T06:56:47.160Z,0
2019-01-14T06:57:47.732Z,0
2019-01-14T06:58:48.505Z,0
2019-01-14T06:59:49.076Z,0
2019-01-14T07:00:49.647Z,0
2019-01-14T07:01:50.224Z,0
2019-01-14T07:02:50.790Z,0
2019-01-14T07:03:51.364Z,0
2019-01-14T07:04:51.936Z,0
2019-01-14T07:05:52.508Z,0
2019-01-14T07:07:59.526Z,0
2019-01-14T07:08:56.241Z,0
2019-01-14T07:09:56.806Z,0
2019-01-14T07:10:57.369Z,0
2019-01-14T07:13:25.173Z,0
2019-01-14T07:14:25.790Z,0
2019-01-14T07:15:26.353Z,0
2019-01-14T07:18:02.117Z,0
2019-01-14T07:19:40.472Z,0
2019-01-14T07:20:54.800Z,0
2019-01-14T07:22:01.631Z,0
2019-01-14T07:23:15.959Z,0
2019-01-14T07:26:47.353Z,0
2019-01-14T07:27:47.917Z,0
2019-01-14T07:28:48.532Z,0
2019-01-14T07:29:49.097Z,0
2019-01-14T07:30:49.662Z,0
2019-01-14T07:31:50.226Z,0
2019-01-14T07:32:50.793Z,0
2019-01-14T07:33:51.408Z,0
2019-01-14T07:34:52.020Z,0
2019-01-14T07:35:52.588Z,0
2019-01-14T07:36:53.158Z,0
2019-01-14T07:37:53.733Z,0
2019-01-14T07:38:54.307Z,0
2019-01-14T07:39:54.880Z,0
2019-01-14T07:40:55.454Z,0
2019-01-14T07:41:56.035Z,0
2019-01-14T07:42:56.644Z,0
2019-01-14T07:43:57.217Z,8
2019-01-14T07:44:57.789Z,8
2019-01-14T07:45:58.361Z,8
2019-01-14T07:46:58.939Z,8
2019-01-14T07:47:59.505Z,8
2019-01-14T07:49:00.078Z,0
2019-01-14T07:50:00.700Z,0
2019-01-14T07:51:01.274Z,0
2019-01-14T07:52:01.896Z,0
2019-01-14T07:53:02.468Z,0
2019-01-14T07:54:03.039Z,0
2019-01-14T07:55:03.610Z,0
2019-01-14T07:56:04.183Z,0
2019-01-14T07:57:04.752Z,0
2019-01-14T07:58:05.324Z,0
2019-01-14T07:59:05.896Z,0
2019-01-14T08:00:06.466Z,0
2019-01-14T08:01:07.037Z,0
2019-01-14T08:02:07.607Z,0
2019-01-14T08:03:08.179Z,0
2019-01-14T08:04:08.798Z,0
2019-01-14T08:05:09.370Z,0
2019-01-14T08:06:09.947Z,0
2019-01-14T08:07:10.566Z,0
2019-01-14T08:08:14.243Z,0
2019-01-14T08:09:12.706Z,0
2019-01-14T08:10:13.275Z,0
2019-01-14T08:11:13.848Z,0
2019-01-14T08:12:14.469Z,0
2019-01-14T08:13:15.090Z,0
2019-01-14T08:14:15.664Z,0
2019-01-14T08:15:16.238Z,0
2019-01-14T08:16:16.811Z,0
2019-01-14T08:17:17.383Z,0
2019-01-14T08:18:17.955Z,0
2019-01-14T08:19:18.526Z,0
2019-01-14T08:20:19.098Z,0
2019-01-14T08:21:19.672Z,0
2019-01-14T08:22:20.243Z,0
2019-01-14T08:23:20.863Z,0
2019-01-14T08:24:21.434Z,0
2019-01-14T08:25:22.008Z,0
2019-01-14T08:26:22.579Z,0
2019-01-14T08:27:23.152Z,0
2019-01-14T08:28:23.772Z,0
2019-01-14T08:29:24.343Z,0
2019-01-14T08:30:24.913Z,0
2019-01-14T08:31:25.483Z,0
2019-01-14T08:32:26.051Z,0
2019-01-14T08:33:26.622Z,0
2019-01-14T08:34:27.200Z,0
2019-01-14T08:35:27.809Z,0
2019-01-14T08:36:28.472Z,0
2019-01-14T08:37:29.045Z,0
2019-01-14T08:38:29.617Z,0
2019-01-14T08:39:30.389Z,0
2019-01-14T08:40:30.958Z,0
2019-01-14T08:41:31.530Z,0
2019-01-14T08:42:32.101Z,0
2019-01-14T08:43:32.671Z,0
2019-01-14T08:44:33.294Z,0
2019-01-14T08:45:33.865Z,0
2019-01-14T08:46:34.439Z,0
2019-01-14T08:47:35.009Z,0
2019-01-14T08:48:35.633Z,0
2019-01-14T08:49:36.205Z,0
2019-01-14T08:50:36.776Z,0
2019-01-14T08:51:37.346Z,0
2019-01-14T08:52:37.917Z,4
2019-01-14T08:53:38.489Z,4
2019-01-14T08:54:39.059Z,4
2019-01-14T08:55:39.680Z,4
2019-01-14T08:56:40.251Z,4
2019-01-14T08:57:40.830Z,4
2019-01-14T08:58:41.396Z,4
2019-01-14T08:59:41.971Z,4
2019-01-14T09:00:42.543Z,4
2019-01-14T09:01:43.115Z,4
2019-01-14T09:02:43.684Z,4
2019-01-14T09:03:44.254Z,4
2019-01-14T09:04:44.832Z,4
2019-01-14T09:05:45.401Z,4
2019-01-14T09:06:46.020Z,4
2019-01-14T09:07:46.593Z,4
2019-01-14T09:08:47.164Z,4
2019-01-14T09:09:47.734Z,4
2019-01-14T09:10:48.307Z,4
2019-01-14T09:11:48.877Z,4
2019-01-14T09:12:49.451Z,4
2019-01-14T09:13:50.065Z,0
2019-01-14T09:14:50.637Z,0
2019-01-14T09:15:51.208Z,0
2019-01-14T09:16:51.778Z,0
2019-01-14T09:17:52.353Z,0
2019-01-14T09:18:52.923Z,0
2019-01-14T09:19:53.492Z,0
2019-01-14T09:20:54.063Z,0
2019-01-14T09:21:54.684Z,0
2019-01-14T09:22:55.255Z,0
2019-01-14T09:24:57.395Z,0
2019-01-14T09:25:57.966Z,0
2019-01-14T09:26:58.540Z,0
2019-01-14T09:27:59.163Z,0
2019-01-14T09:28:59.736Z,0
2019-01-14T09:30:00.307Z,0
2019-01-14T09:31:00.878Z,4
2019-01-14T09:32:01.448Z,4
2019-01-14T09:33:02.018Z,4
2019-01-14T09:34:02.593Z,4
2019-01-14T09:35:03.203Z,4
2019-01-14T09:36:03.774Z,4
2019-01-14T09:37:04.345Z,4
2019-01-14T09:38:04.915Z,4
2019-01-14T09:39:05.536Z,4
2019-01-14T09:40:06.111Z,8
2019-01-14T09:41:06.682Z,8
2019-01-14T09:42:07.256Z,8
2019-01-14T09:43:07.874Z,8
2019-01-14T09:44:08.445Z,8
2019-01-14T09:45:09.068Z,8
2019-01-14T09:46:09.636Z,8
2019-01-14T09:47:10.208Z,8
2019-01-14T09:48:10.778Z,8
2019-01-14T09:49:11.355Z,8
2019-01-14T09:50:11.920Z,8
2019-01-14T09:51:12.542Z,4
2019-01-14T09:52:13.113Z,4
2019-01-14T09:53:13.685Z,4
2019-01-14T09:54:14.252Z,4
2019-01-14T09:55:14.825Z,4
2019-01-14T09:56:15.394Z,4
2019-01-14T09:57:15.966Z,8
2019-01-14T09:58:16.536Z,8
2019-01-14T09:59:17.107Z,8
2019-01-14T10:00:17.728Z,8
2019-01-14T10:01:18.299Z,8
2019-01-14T10:02:18.874Z,4
2019-01-14T10:03:19.445Z,8
2019-01-14T10:04:20.015Z,8
2019-01-14T10:05:20.589Z,8
2019-01-14T10:06:21.200Z,8
2019-01-14T10:07:21.771Z,8
2019-01-14T10:08:22.342Z,4
2019-01-14T10:09:22.963Z,4
2019-01-14T10:10:23.534Z,8
2019-01-14T10:11:24.103Z,8
2019-01-14T10:12:24.673Z,8
2019-01-14T10:13:25.248Z,8
2019-01-14T10:14:25.908Z,8
2019-01-14T10:15:27.993Z,8
2019-01-14T10:16:28.044Z,8
2019-01-14T10:17:28.795Z,8
2019-01-14T10:18:29.356Z,8
2019-01-14T10:19:30.019Z,8
2019-01-14T10:20:30.591Z,8
2019-01-14T10:21:31.162Z,8
2019-01-14T10:22:31.734Z,8
2019-01-14T10:23:32.305Z,8
2019-01-14T10:24:32.878Z,8
2019-01-14T10:25:33.498Z,8
2019-01-14T10:26:34.071Z,8
2019-01-14T10:27:34.641Z,8
2019-01-14T10:28:35.212Z,8
2019-01-14T10:29:35.781Z,8
2019-01-14T10:30:36.352Z,8
2019-01-14T10:31:36.974Z,8
2019-01-14T10:32:37.543Z,8
2019-01-14T10:33:38.315Z,8
2019-01-14T10:34:38.928Z,8
2019-01-14T10:35:39.500Z,8
2019-01-14T10:36:40.071Z,8
2019-01-14T10:37:40.643Z,8
2019-01-14T10:38:41.265Z,8
2019-01-14T10:39:41.835Z,8
2019-01-14T10:40:42.408Z,8
2019-01-14T10:41:42.977Z,8
2019-01-14T10:42:43.596Z,8
2019-01-14T10:43:44.168Z,8
2019-01-14T10:44:44.740Z,8
2019-01-14T10:45:45.313Z,8
2019-01-14T10:46:45.883Z,8
2019-01-14T10:47:46.455Z,8
2019-01-14T10:48:47.076Z,8
2019-01-14T10:49:47.647Z,8
2019-01-14T10:50:48.217Z,8
2019-01-14T10:51:48.788Z,8
2019-01-14T10:52:49.359Z,8
2019-01-14T10:53:49.930Z,8
2019-01-14T10:54:50.501Z,8
2019-01-14T10:55:51.071Z,8
2019-01-14T10:56:51.642Z,8
2019-01-14T10:57:52.213Z,8
2019-01-14T10:58:52.783Z,8
2019-01-14T10:59:53.404Z,8
2019-01-14T11:00:53.976Z,8
2019-01-14T11:01:54.597Z,8
2019-01-14T11:02:55.171Z,8
2019-01-14T11:03:55.740Z,8
2019-01-14T11:04:56.312Z,8
2019-01-14T11:05:56.881Z,8
2019-01-14T11:06:57.505Z,8
2019-01-14T11:07:58.075Z,8
2019-01-14T11:09:05.768Z,8
2019-01-14T11:10:00.248Z,8
2019-01-14T11:11:00.780Z,8
2019-01-14T11:12:01.353Z,8
2019-01-14T11:13:01.928Z,8
2019-01-14T11:14:02.495Z,8
2019-01-14T11:15:03.380Z,8
2019-01-14T11:16:03.924Z,8
2019-01-14T11:17:04.493Z,8
2019-01-14T11:18:05.213Z,8
2019-01-14T11:19:05.784Z,8
2019-01-14T11:20:06.406Z,8
2019-01-14T11:21:06.978Z,8
2019-01-14T11:22:07.550Z,8
2019-01-14T11:23:08.122Z,8
2019-01-14T11:24:08.694Z,8
2019-01-14T11:25:09.316Z,8
2019-01-14T11:26:09.887Z,4
2019-01-14T11:27:10.458Z,4
2019-01-14T11:28:11.029Z,8
2019-01-14T11:29:11.602Z,8
2019-01-14T11:30:12.173Z,8
2019-01-14T11:31:12.744Z,8
2019-01-14T11:32:13.313Z,8
2019-01-14T11:33:13.884Z,8
2019-01-14T11:34:14.455Z,8
2019-01-14T11:35:15.027Z,8
2019-01-14T11:36:15.598Z,8
2019-01-14T11:37:16.172Z,8
2019-01-14T11:38:16.739Z,8
2019-01-14T11:39:17.310Z,8
2019-01-14T11:40:17.881Z,8
2019-01-14T11:41:18.503Z,8
2019-01-14T11:42:19.122Z,8
2019-01-14T11:43:19.694Z,8
2019-01-14T11:44:20.267Z,8
2019-01-14T11:45:20.841Z,8
2019-01-14T11:46:21.410Z,8
2019-01-14T11:47:21.984Z,8
2019-01-14T11:48:22.553Z,8
2019-01-14T11:49:23.124Z,8
2019-01-14T11:50:23.696Z,8
2019-01-14T11:51:24.270Z,132
2019-01-14T11:52:24.846Z,2040
2019-01-14T11:53:25.471Z,2048
2019-01-14T11:54:26.048Z,2056
2019-01-14T11:55:26.623Z,2064
2019-01-14T11:56:27.250Z,2064
2019-01-14T11:57:27.876Z,2076
2019-01-14T11:58:28.451Z,2080
2019-01-14T11:59:29.025Z,2088
2019-01-14T12:00:36.256Z,2088
2019-01-14T12:01:31.171Z,2084
2019-01-14T12:02:31.748Z,2100
2019-01-14T12:03:32.372Z,2104
2019-01-14T12:04:32.948Z,2148
2019-01-14T12:05:33.523Z,2152
2019-01-14T12:06:34.150Z,2188
2019-01-14T12:07:34.725Z,2208
2019-01-14T12:08:35.303Z,2148
2019-01-14T12:09:35.879Z,2104
2019-01-14T12:10:36.460Z,2116
2019-01-14T12:11:37.077Z,2104
2019-01-14T12:12:37.687Z,2080
2019-01-14T12:13:38.278Z,2080
2019-01-14T12:14:38.903Z,2084
2019-01-14T12:15:39.530Z,2072
2019-01-14T12:16:40.104Z,2072
2019-01-14T12:17:40.679Z,2068
2019-01-14T12:18:41.257Z,2088
2019-01-14T12:19:41.837Z,2072
2019-01-14T12:20:42.409Z,2060
2019-01-14T12:21:42.988Z,2072
2019-01-14T12:22:43.560Z,2088
2019-01-14T12:23:44.138Z,2124
2019-01-14T12:24:44.714Z,2132
2019-01-14T12:25:45.290Z,2128
2019-01-14T12:26:45.867Z,2124
2019-01-14T12:27:46.440Z,2108
2019-01-14T12:28:47.017Z,2108
2019-01-14T12:29:47.596Z,2084
2019-01-14T12:30:48.263Z,2100
2019-01-14T12:31:48.839Z,2112
2019-01-14T12:32:49.417Z,2128
2019-01-14T12:33:49.992Z,2128
2019-01-14T12:34:50.568Z,2132
2019-01-14T12:35:51.193Z,2152
2019-01-14T12:36:51.914Z,2148
2019-01-14T12:37:52.448Z,2152
2019-01-14T12:38:53.026Z,2148
2019-01-14T12:39:53.602Z,2156
2019-01-14T12:40:54.182Z,2180
2019-01-14T12:41:54.800Z,2196
2019-01-14T12:42:55.374Z,2176
2019-01-14T12:43:55.956Z,2188
2019-01-14T12:44:56.526Z,2184
2019-01-14T12:45:57.104Z,2180
2019-01-14T12:46:57.681Z,2184
2019-01-14T12:47:58.259Z,2200
2019-01-14T12:48:58.833Z,2204
2019-01-14T12:49:59.410Z,2208
2019-01-14T12:50:59.986Z,2204
2019-01-14T12:52:00.563Z,2208
2019-01-14T12:53:01.141Z,2208
2019-01-14T12:54:01.715Z,2204
2019-01-14T12:55:02.295Z,2200
2019-01-14T12:56:02.917Z,2204
2019-01-14T12:57:03.496Z,2208
2019-01-14T12:58:04.071Z,2200
2019-01-14T12:59:04.650Z,2196
2019-01-14T13:00:05.225Z,2204
2019-01-14T13:01:05.801Z,2200
2019-01-14T13:02:06.378Z,2196
2019-01-14T13:03:06.954Z,2200
2019-01-14T13:04:07.580Z,2204
2019-01-14T13:05:08.157Z,2208
2019-01-14T13:06:08.733Z,2216
2019-01-14T13:07:09.310Z,2220
2019-01-14T13:08:09.890Z,2232
2019-01-14T13:09:10.472Z,2232
2019-01-14T13:10:11.083Z,2244
2019-01-14T13:11:11.661Z,2248
2019-01-14T13:12:12.329Z,2248
2019-01-14T13:13:12.906Z,2244
2019-01-14T13:14:13.483Z,2252
2019-01-14T13:15:14.059Z,2260
2019-01-14T13:16:14.691Z,2272
2019-01-14T13:17:15.263Z,2292
2019-01-14T13:18:15.840Z,2296
2019-01-14T13:19:16.417Z,2308
2019-01-14T13:20:16.996Z,2316
2019-01-14T13:21:17.615Z,2328
2019-01-14T13:22:18.189Z,2336
2019-01-14T13:23:18.765Z,2324
2019-01-14T13:24:19.344Z,2332
2019-01-14T13:25:19.919Z,2328
2019-01-14T13:26:20.497Z,2312
2019-01-14T13:27:21.072Z,2304
2019-01-14T13:28:21.649Z,2328
2019-01-14T13:29:22.230Z,2356
2019-01-14T13:30:22.803Z,2372
2019-01-14T13:31:23.383Z,2368
2019-01-14T13:32:23.998Z,2380
2019-01-14T13:33:24.626Z,2400
2019-01-14T13:34:25.213Z,2404
2019-01-14T13:35:25.821Z,2416
2019-01-14T13:36:26.398Z,2440
2019-01-14T13:37:26.976Z,2460
2019-01-14T13:38:27.603Z,2456
2019-01-14T13:39:33.919Z,2460
2019-01-14T13:40:29.751Z,2492
2019-01-14T13:41:30.370Z,2480
2019-01-14T13:42:30.948Z,2472
2019-01-14T13:43:31.527Z,2504
2019-01-14T13:44:32.102Z,2520
2019-01-14T13:45:32.678Z,2524
2019-01-14T13:46:33.257Z,2556
2019-01-14T13:47:33.832Z,2564
2019-01-14T13:48:34.412Z,2568
2019-01-14T13:49:34.985Z,2580
2019-01-14T13:50:35.561Z,2616
2019-01-14T13:51:36.189Z,2632
2019-01-14T13:52:36.766Z,2640
2019-01-14T13:53:37.392Z,2668
2019-01-14T13:54:37.970Z,2716
2019-01-14T13:55:38.595Z,2740
2019-01-14T13:56:39.175Z,2760
2019-01-14T13:57:39.753Z,2760
2019-01-14T13:58:40.331Z,2768
2019-01-14T13:59:40.907Z,2784
2019-01-14T14:00:41.490Z,2820
2019-01-14T14:01:42.060Z,2828
2019-01-14T14:02:42.638Z,2860
2019-01-14T14:03:43.264Z,2892
2019-01-14T14:04:43.842Z,2924
2019-01-14T14:05:44.419Z,2952
2019-01-14T14:06:44.995Z,2964
2019-01-14T14:07:45.571Z,2976
2019-01-14T14:08:46.154Z,3036
2019-01-14T14:09:51.778Z,3088
2019-01-14T14:10:52.356Z,3108
2019-01-14T14:11:52.931Z,3140
2019-01-14T14:12:53.513Z,3192
2019-01-14T14:13:54.086Z,3272
2019-01-14T14:14:54.665Z,3356
2019-01-14T14:15:55.243Z,3420
2019-01-14T14:16:55.821Z,3516
2019-01-14T14:17:56.724Z,3632
2019-01-14T14:18:57.345Z,3696
2019-01-14T14:19:57.921Z,3724
2019-01-14T14:20:58.499Z,3744
2019-01-14T14:21:59.079Z,3816
2019-01-14T14:22:59.660Z,4036
2019-01-14T14:24:00.236Z,4552
2019-01-14T14:25:00.811Z,5372
2019-01-14T14:26:01.439Z,6540
2019-01-14T14:27:02.218Z,8120
2019-01-14T14:28:02.796Z,9900
2019-01-14T14:29:03.376Z,24832
2019-01-14T14:30:03.954Z,46720
2019-01-14T14:31:04.533Z,43200
2019-01-14T14:32:05.114Z,27808
2019-01-14T14:33:05.694Z,21792
2019-01-14T14:34:06.275Z,19872
2019-01-14T14:35:06.899Z,20128
2019-01-14T14:36:07.582Z,20544
2019-01-14T14:37:08.108Z,20768
2019-01-14T14:38:09.895Z,20960
2019-01-14T14:39:10.469Z,20448
2019-01-14T14:40:11.044Z,20480
2019-01-14T14:41:11.620Z,20736
2019-01-14T14:42:12.202Z,20672
2019-01-14T14:43:12.785Z,20544
2019-01-14T14:44:13.368Z,20544
2019-01-14T14:45:13.952Z,20736